Time;durP1;ratioP1;P1;durP2;ratioP2;P2;SDS_P1;SDS_P2;PMS_P1;PMS_P2;Temp;Humidity;BMP_temperature;BMP_pressure;BME280_temperature;BME280_humidity;BME280_pressure;Samples;Min_cycle;Max_cycle;Signal;HPM_P1;HPM_P2
2021/03/24 00:01:28;;;;;;;57.13;35.00;;;7.00;77.10;;;;;;6089585;23;20134;-88
2021/03/24 00:08:21;;;;;;;63.70;37.88;;;7.00;76.90;;;;;;6036750;23;20158;-87
2021/03/24 00:10:47;;;;;;;51.22;33.38;;;4.40;78.30;;;;;;6117944;23;20143;-89
2021/03/24 00:13:19;;;;;;;55.80;35.42;;;3.50;73.70;;;;;;6091172;23;20135;-87
2021/03/24 00:15:50;;;;;;;68.57;35.78;;;5.30;75.80;;;;;;6089555;23;20163;-89
2021/03/24 00:18:17;;;;;;;57.30;34.45;;;6.90;77.80;;;;;;6086127;23;20166;-87
2021/03/24 00:21:04;;;;;;;57.97;35.17;;;4.40;76.80;;;;;;6088009;23;20151;-87
2021/03/24 00:23:35;;;;;;;60.22;37.28;;;4.30;77.00;;;;;;6088400;23;20139;-87
2021/03/24 00:26:01;;;;;;;60.50;35.38;;;4.30;77.50;;;;;;6088806;23;20151;-87
2021/03/24 00:28:30;;;;;;;59.70;34.35;;;3.00;74.90;;;;;;6089323;23;20139;-87
2021/03/24 00:30:56;;;;;;;61.42;36.17;;;4.30;76.80;;;;;;6087820;23;20169;-88
2021/03/24 00:33:29;;;;;;;66.60;36.33;;;4.30;76.40;;;;;;6111652;23;20155;-88
2021/03/24 00:36:04;;;;;;;67.93;35.72;;;4.30;76.60;;;;;;6088720;23;20415;-88
2021/03/24 00:38:30;;;;;;;62.05;36.17;;;5.70;76.20;;;;;;6089198;23;20154;-88
2021/03/24 00:40:58;;;;;;;63.30;37.28;;;4.30;78.00;;;;;;6089612;23;20142;-88
2021/03/24 00:43:25;;;;;;;59.15;34.22;;;4.30;78.00;;;;;;6107904;23;20185;-90
2021/03/24 00:45:57;;;;;;;61.10;35.63;;;2.90;75.00;;;;;;6094412;23;20138;-88
2021/03/24 00:48:29;;;;;;;51.17;31.80;;;4.30;77.00;;;;;;6118071;23;20160;-88
2021/03/24 00:50:57;;;;;;;61.70;34.92;;;4.40;77.00;;;;;;6118249;23;20133;-88
2021/03/24 00:53:23;;;;;;;58.25;34.28;;;4.40;76.70;;;;;;6092187;23;20158;-88
2021/03/24 00:55:54;;;;;;;60.40;36.58;;;4.30;76.60;;;;;;6115713;23;20181;-88
2021/03/24 00:58:20;;;;;;;62.97;35.83;;;4.30;79.20;;;;;;6091406;23;20162;-86
2021/03/24 01:00:50;;;;;;;60.88;34.70;;;4.20;77.30;;;;;;6194551;23;20146;-88
2021/03/24 01:03:17;;;;;;;59.53;35.15;;;5.50;75.50;;;;;;6091549;23;20157;-87
2021/03/24 01:05:47;;;;;;;67.18;37.03;;;4.50;76.50;;;;;;6116771;23;20142;-88
2021/03/24 01:08:17;;;;;;;58.05;34.85;;;4.40;76.40;;;;;;6091923;23;20214;-88
2021/03/24 01:10:43;;;;;;;64.65;35.97;;;4.40;76.20;;;;;;6094188;23;20138;-88
2021/03/24 01:13:12;;;;;;;65.22;37.10;;;4.40;78.00;;;;;;6091504;23;20169;-88
2021/03/24 01:15:37;;;;;;;62.15;36.50;;;4.30;76.10;;;;;;6090775;23;20151;-86
2021/03/24 01:18:04;;;;;;;72.20;39.67;;;4.60;76.50;;;;;;6114789;23;20177;-87
2021/03/24 01:20:37;;;;;;;61.60;36.90;;;4.40;76.00;;;;;;6116022;23;20150;-87
2021/03/24 01:23:05;;;;;;;67.95;41.80;;;4.40;76.60;;;;;;6091180;23;20150;-88
2021/03/24 01:25:32;;;;;;;68.97;37.08;;;6.20;78.10;;;;;;6090880;23;20157;-87
2021/03/24 01:27:58;;;;;;;65.22;37.25;;;4.20;73.80;;;;;;6115462;23;20559;-87
2021/03/24 01:30:29;;;;;;;64.82;36.92;;;4.30;76.40;;;;;;6116719;23;20161;-88
2021/03/24 01:32:58;;;;;;;63.33;36.30;;;4.20;76.70;;;;;;6190618;23;20162;-87
2021/03/24 01:35:32;;;;;;;74.65;38.30;;;4.20;77.20;;;;;;6093886;23;20154;-87
2021/03/24 01:37:59;;;;;;;74.22;37.88;;;4.10;78.50;;;;;;6117894;23;20165;-87
2021/03/24 01:40:27;;;;;;;82.15;41.13;;;1.00;70.40;;;;;;6217589;23;20208;-87
2021/03/24 01:42:58;;;;;;;78.57;40.22;;;4.00;77.70;;;;;;6087001;23;20194;-88
2021/03/24 01:45:30;;;;;;;70.65;38.85;;;4.10;77.70;;;;;;6088126;23;20178;-88
2021/03/24 01:47:59;;;;;;;73.35;39.38;;;4.60;75.70;;;;;;6087832;23;20230;-87
2021/03/24 01:50:33;;;;;;;69.70;39.67;;;4.10;77.90;;;;;;6087642;23;20215;-88
2021/03/24 01:52:59;;;;;;;72.53;38.63;;;3.70;74.80;;;;;;6088441;23;20174;-87
2021/03/24 01:55:28;;;;;;;69.25;38.42;;;4.00;78.00;;;;;;6088351;23;20151;-88
2021/03/24 01:58:00;;;;;;;79.55;39.97;;;4.00;78.70;;;;;;6088854;23;20161;-88
2021/03/24 02:00:33;;;;;;;73.22;39.90;;;5.10;77.80;;;;;;6087196;23;20215;-88
2021/03/24 02:02:59;;;;;;;68.53;38.72;;;4.00;79.20;;;;;;6087829;23;20147;-88
2021/03/24 02:05:27;;;;;;;71.30;38.05;;;3.90;75.50;;;;;;6088075;23;20155;-88
2021/03/24 02:08:03;;;;;;;66.93;40.60;;;4.00;79.20;;;;;;6089856;23;20151;-87
2021/03/24 02:10:32;;;;;;;73.88;39.80;;;4.10;79.20;;;;;;6087213;23;20181;-88
2021/03/24 02:13:09;;;;;;;71.97;38.92;;;1.50;76.10;;;;;;6086655;23;20155;-88
2021/03/24 02:15:43;;;;;;;70.68;39.00;;;4.00;78.70;;;;;;6087693;23;20155;-88
2021/03/24 02:18:13;;;;;;;67.13;38.13;;;4.40;76.30;;;;;;6111030;23;20199;-88
2021/03/24 02:20:54;;;;;;;73.22;39.50;;;4.20;79.10;;;;;;6087351;23;20155;-88
2021/03/24 02:23:40;;;;;;;71.20;40.38;;;4.10;75.90;;;;;;6086962;23;20147;-88
2021/03/24 02:26:27;;;;;;;67.15;36.72;;;3.70;75.80;;;;;;6087968;23;20139;-87
2021/03/24 02:28:56;;;;;;;68.38;37.30;;;4.80;77.60;;;;;;6087460;23;20135;-88
2021/03/24 02:31:25;;;;;;;70.82;39.17;;;4.10;78.80;;;;;;6087689;23;20182;-88
2021/03/24 02:33:54;;;;;;;70.78;38.25;;;4.20;79.60;;;;;;6110493;23;20151;-88
2021/03/24 02:36:22;;;;;;;67.07;38.20;;;4.20;78.90;;;;;;6087342;23;20244;-88
2021/03/24 02:38:51;;;;;;;65.65;38.72;;;4.10;78.50;;;;;;6085302;23;20157;-89
2021/03/24 02:41:21;;;;;;;74.25;38.88;;;4.10;78.40;;;;;;6087293;23;20147;-87
2021/03/24 02:43:48;;;;;;;74.13;39.05;;;4.10;79.40;;;;;;6111426;23;20242;-87
2021/03/24 02:46:19;;;;;;;71.07;39.00;;;4.20;75.70;;;;;;6088424;23;20206;-87
2021/03/24 02:48:47;;;;;;;66.80;36.10;;;4.10;81.20;;;;;;6111439;23;20155;-87
2021/03/24 02:51:19;;;;;;;62.85;36.95;;;4.20;79.00;;;;;;6088680;23;20151;-87
2021/03/24 02:53:46;;;;;;;64.90;36.42;;;4.10;79.60;;;;;;6087201;23;20214;-87
2021/03/24 02:56:14;;;;;;;64.43;38.63;;;4.10;78.30;;;;;;6086888;23;20178;-87
2021/03/24 02:58:40;;;;;;;70.13;39.20;;;3.30;78.90;;;;;;6089589;23;20167;-88
2021/03/24 03:01:15;;;;;;;80.82;41.85;;;2.90;77.30;;;;;;6090220;23;20189;-87
2021/03/24 03:03:50;;;;;;;69.88;36.40;;;4.00;79.90;;;;;;6113159;23;20146;-87
2021/03/24 03:09:04;;;;;;;60.13;35.67;;;4.10;77.30;;;;;;6112203;23;20258;-88
2021/03/24 03:12:06;;;;;;;69.82;38.00;;;3.90;79.30;;;;;;6222959;23;20164;-87
2021/03/24 03:15:20;;;;;;;59.47;34.55;;;5.90;79.60;;;;;;6098344;23;20176;-88
2021/03/24 03:17:57;;;;;;;62.67;34.38;;;6.40;78.90;;;;;;6210956;23;20207;-87
2021/03/24 03:20:34;;;;;;;66.22;37.50;;;3.90;78.80;;;;;;6127560;23;20138;-87
2021/03/24 03:23:17;;;;;;;71.10;38.03;;;3.80;78.70;;;;;;6118446;23;20150;-88
2021/03/24 03:26:08;;;;;;;65.32;37.90;;;4.80;78.60;;;;;;6093928;23;20175;-88
2021/03/24 03:28:39;;;;;;;66.68;36.58;;;3.90;79.20;;;;;;6191881;23;20154;-87
2021/03/24 03:31:10;;;;;;;66.72;34.30;;;3.80;79.20;;;;;;6093577;23;20143;-89
2021/03/24 03:33:40;;;;;;;62.92;34.63;;;3.80;79.30;;;;;;6216300;23;20142;-88
2021/03/24 03:36:08;;;;;;;59.58;34.75;;;3.80;79.40;;;;;;6090745;23;20182;-88
2021/03/24 03:38:41;;;;;;;58.88;35.70;;;3.90;79.80;;;;;;6090797;23;20154;-87
2021/03/24 03:41:10;;;;;;;60.65;33.10;;;4.60;77.10;;;;;;6091207;23;20143;-87
2021/03/24 03:43:39;;;;;;;60.03;33.60;;;3.70;79.00;;;;;;6089722;23;20154;-87
2021/03/24 03:46:07;;;;;;;64.45;34.03;;;3.70;79.70;;;;;;6091667;23;20189;-87
2021/03/24 03:48:36;;;;;;;73.95;37.50;;;4.60;78.00;;;;;;6116128;23;20193;-87
2021/03/24 03:51:10;;;;;;;64.53;34.20;;;3.40;76.50;;;;;;6091261;23;20192;-87
2021/03/24 03:53:48;;;;;;;63.00;35.10;;;3.50;79.90;;;;;;6091783;23;20154;-87
2021/03/24 03:56:43;;;;;;;67.82;35.33;;;3.50;82.30;;;;;;6092529;23;20191;-87
2021/03/24 03:59:16;;;;;;;66.38;35.75;;;6.00;85.30;;;;;;6093090;23;20150;-87
2021/03/24 04:01:59;;;;;;;75.70;36.60;;;3.50;86.60;;;;;;6093652;23;20217;-88
2021/03/24 04:04:37;;;;;;;71.07;36.20;;;5.90;88.30;;;;;;6092979;23;20150;-87
2021/03/24 04:07:19;;;;;;;83.70;34.80;;;3.30;89.00;;;;;;6092397;23;20146;-86
2021/03/24 04:09:49;;;;;;;62.15;32.17;;;3.40;90.10;;;;;;6188536;23;20154;-90
2021/03/24 04:12:20;;;;;;;73.05;33.00;;;3.40;90.50;;;;;;6091502;23;20150;-87
2021/03/24 04:14:48;;;;;;;64.80;30.83;;;3.40;87.00;;;;;;6116629;23;20162;-86
2021/03/24 04:17:16;;;;;;;65.95;31.08;;;3.40;90.20;;;;;;6090968;23;20190;-86
2021/03/24 04:19:46;;;;;;;67.05;29.83;;;3.30;90.70;;;;;;6090680;23;20150;-87
2021/03/24 04:22:15;;;;;;;57.60;30.40;;;3.30;90.60;;;;;;6089496;23;20208;-86
2021/03/24 04:24:53;;;;;;;63.40;33.40;;;4.90;90.70;;;;;;6094706;23;20142;-88
2021/03/24 05:28:26;;;;;;;52.55;29.00;;;3.40;91.50;;;;;;6049361;22;20186;-87
2021/03/24 05:49:16;;;;;;;58.65;33.80;;;3.70;91.70;;;;;;6089413;22;20201;-85
2021/03/24 06:07:19;;;;;;;51.08;27.10;;;3.70;91.50;;;;;;6051645;22;20667;-86
2021/03/24 06:18:15;;;;;;;49.38;28.75;;;3.90;91.40;;;;;;6094253;22;20205;-85
2021/03/24 06:46:25;;;;;;;31.63;22.80;;;7.60;86.00;;;;;;6064819;22;20210;-86
2021/03/24 06:49:07;;;;;;;38.33;23.90;;;7.80;78.80;;;;;;6136771;22;20585;-88
2021/03/24 06:51:57;;;;;;;42.30;24.38;;;8.20;80.00;;;;;;6176287;22;20376;-86
2021/03/24 06:54:31;;;;;;;38.53;23.77;;;8.50;76.10;;;;;;6219904;22;20201;-87
2021/03/24 06:57:26;;;;;;;30.73;22.20;;;;;;;;;;6272403;22;20435;-89
2021/03/24 07:00:10;;;;;;;33.77;23.93;;;;;;;;;;6273624;22;20381;-87
2021/03/24 07:03:00;;;;;;;36.90;24.70;;;9.50;94.40;;;;;;6275393;22;20379;-86
2021/03/24 07:05:30;;;;;;;36.77;23.77;;;;;;;;;;6271835;22;20840;-85
2021/03/24 07:10:43;;;;;;;38.63;23.47;;;10.90;52.80;;;;;;6134724;23;20440;-88
2021/03/24 07:13:28;;;;;;;29.97;22.30;;;;;;;;;;6119669;23;20396;-86
2021/03/24 07:16:14;;;;;;;27.83;22.10;;;11.90;57.80;;;;;;6146249;22;20377;-87
2021/03/24 07:19:21;;;;;;;26.93;22.90;;;12.60;52.30;;;;;;6119766;22;20388;-86
2021/03/24 07:22:05;;;;;;;28.80;21.10;;;12.70;53.00;;;;;;6146179;22;20396;-88
2021/03/24 07:25:02;;;;;;;28.63;22.20;;;15.70;49.80;;;;;;6123705;23;20365;-88
2021/03/24 07:27:37;;;;;;;35.90;23.60;;;13.90;49.70;;;;;;6146694;22;20393;-88
2021/03/24 07:30:31;;;;;;;29.90;22.83;;;15.30;53.70;;;;;;6144414;22;20391;-88
2021/03/24 07:33:05;;;;;;;26.80;22.93;;;;;;;;;;6118685;23;20861;-87
2021/03/24 07:35:54;;;;;;;29.73;22.33;;;;;;;;;;6118051;23;20365;-87
2021/03/24 07:39:07;;;;;;;25.90;20.80;;;15.40;53.40;;;;;;6107622;23;20423;-87
2021/03/24 07:41:54;;;;;;;29.27;20.60;;;;;;;;;;6117385;22;20378;-86
2021/03/24 07:44:23;;;;;;;31.57;23.80;;;;;;;;;;6116069;23;20478;-87
2021/03/24 07:47:08;;;;;;;28.53;21.27;;;;;;;;;;6115272;22;20394;-88
2021/03/24 07:50:11;;;;;;;28.20;20.90;;;15.60;59.40;;;;;;6094669;23;20503;-87
2021/03/24 07:55:55;;;;;;;27.43;21.70;;;15.90;51.60;;;;;;6141645;22;20456;-86
2021/03/24 07:58:41;;;;;;;34.67;24.80;;;;;;;;;;6119074;22;20416;-89
2021/03/24 08:01:12;;;;;;;28.50;22.30;;;;;;;;;;6220600;23;20416;-87
2021/03/24 08:03:56;;;;;;;45.30;25.37;;;16.60;65.80;;;;;;6120556;23;20386;-87
2021/03/24 08:06:50;;;;;;;28.67;23.43;;;16.80;54.40;;;;;;6142321;23;20385;-88
2021/03/24 08:09:38;;;;;;;30.97;24.90;;;16.60;53.10;;;;;;6119007;23;20373;-87
2021/03/24 08:12:48;;;;;;;27.93;23.57;;;16.70;49.20;;;;;;6119945;23;20438;-88
2021/03/24 08:15:53;;;;;;;31.53;23.80;;;16.70;50.40;;;;;;6171831;23;20400;-87
2021/03/24 08:18:38;;;;;;;27.73;23.40;;;;;;;;;;6120025;23;20888;-87
2021/03/24 08:21:30;;;;;;;32.10;23.40;;;;;;;;;;6146670;23;20360;-88
2021/03/24 08:24:12;;;;;;;29.03;24.63;;;17.80;52.40;;;;;;6120472;23;20378;-88
2021/03/24 08:27:00;;;;;;;26.33;23.43;;;17.60;51.70;;;;;;6116710;23;20362;-86
2021/03/24 08:29:36;;;;;;;27.93;23.77;;;17.80;49.80;;;;;;6113625;23;20837;-86
2021/03/24 08:32:24;;;;;;;33.13;25.00;;;18.40;52.30;;;;;;6115853;23;20855;-87
2021/03/24 08:35:21;;;;;;;27.37;23.40;;;18.70;51.70;;;;;;6144395;23;20377;-88
2021/03/24 08:38:21;;;;;;;33.30;25.07;;;19.10;51.00;;;;;;6141037;23;20480;-87
2021/03/24 08:41:01;;;;;;;30.37;25.27;;;19.80;51.60;;;;;;6146398;23;20382;-86
2021/03/24 08:43:36;;;;;;;29.47;24.30;;;19.60;50.30;;;;;;6114684;23;20381;-87
2021/03/24 08:46:27;;;;;;;31.53;25.80;;;19.60;49.20;;;;;;6115673;23;20392;-88
2021/03/24 08:49:02;;;;;;;27.67;24.20;;;;;;;;;;6114914;23;20453;-87
2021/03/24 08:51:55;;;;;;;29.60;24.43;;;18.70;40.40;;;;;;6112370;23;20503;-88
2021/03/24 08:54:45;;;;;;;28.60;22.43;;;21.00;39.00;;;;;;6136244;23;20489;-86
2021/03/24 08:57:36;;;;;;;32.03;23.80;;;18.50;37.30;;;;;;6110248;23;20417;-86
2021/03/24 09:00:29;;;;;;;34.03;26.30;;;19.10;38.10;;;;;;6112208;23;20389;-85
2021/03/24 09:03:13;;;;;;;33.47;26.30;;;18.20;38.00;;;;;;6113049;23;20468;-86
2021/03/24 09:06:03;;;;;;;31.43;23.90;;;18.80;38.00;;;;;;6113520;23;20386;-86
2021/03/24 09:08:39;;;;;;;31.30;25.93;;;21.50;36.70;;;;;;6137622;23;20378;-86
2021/03/24 09:11:26;;;;;;;31.90;25.20;;;;;;;;;;6139891;23;20456;-85
2021/03/24 09:14:17;;;;;;;31.50;25.77;;;20.80;46.10;;;;;;6111954;23;20809;-86
2021/03/24 09:17:14;;;;;;;31.23;25.93;;;21.10;41.20;;;;;;6140206;23;20884;-87
2021/03/24 09:19:59;;;;;;;34.10;28.07;;;;;;;;;;6135541;23;20833;-87
2021/03/24 09:22:46;;;;;;;32.50;27.57;;;;;;;;;;6111203;23;20385;-87
2021/03/24 09:25:36;;;;;;;33.70;26.63;;;21.50;52.00;;;;;;6138220;23;20354;-85
2021/03/24 09:28:17;;;;;;;33.07;27.40;;;22.00;47.90;;;;;;6111817;23;20427;-87
2021/03/24 09:31:00;;;;;;;37.77;28.50;;;21.90;49.50;;;;;;6135981;23;20368;-87
2021/03/24 09:33:47;;;;;;;36.10;26.83;;;21.80;49.30;;;;;;6109187;23;20389;-86
2021/03/24 09:36:45;;;;;;;32.30;25.03;;;21.70;48.80;;;;;;6107574;23;20432;-86
2021/03/24 09:39:43;;;;;;;35.50;26.90;;;21.20;43.40;;;;;;6133060;23;20373;-86
2021/03/24 09:42:25;;;;;;;31.50;25.70;;;22.30;45.00;;;;;;6091043;23;20409;-86
2021/03/24 09:44:56;;;;;;;34.80;27.40;;;;;;;;;;6125283;23;20362;-88
2021/03/24 09:47:28;;;;;;;34.03;27.00;;;22.30;37.50;;;;;;6104397;23;20400;-85
2021/03/24 09:50:02;;;;;;;37.60;28.53;;;21.70;39.70;;;;;;6133591;23;20401;-85
2021/03/24 09:52:46;;;;;;;37.20;28.63;;;21.60;37.40;;;;;;6108527;23;20461;-87
2021/03/24 09:55:24;;;;;;;32.63;26.13;;;22.30;34.50;;;;;;6110797;23;20428;-86
2021/03/24 09:58:02;;;;;;;30.73;25.50;;;22.40;32.60;;;;;;6136998;23;20425;-86
2021/03/24 10:00:38;;;;;;;32.10;25.80;;;23.80;35.20;;;;;;6115392;23;20408;-86
2021/03/24 10:03:18;;;;;;;33.07;26.77;;;23.70;35.00;;;;;;6115713;22;20397;-87
2021/03/24 10:05:56;;;;;;;31.73;25.47;;;22.00;34.60;;;;;;6136950;23;20380;-90
2021/03/24 10:08:49;;;;;;;24.10;20.80;;;22.00;34.50;;;;;;6112014;23;20381;-87
2021/03/24 10:11:25;;;;;;;28.33;25.10;;;22.30;35.00;;;;;;6113217;23;20380;-88
2021/03/24 10:14:14;;;;;;;31.57;22.80;;;21.10;35.20;;;;;;6108309;23;20480;-89
2021/03/24 10:16:46;;;;;;;30.47;23.60;;;21.20;35.60;;;;;;6106556;23;20440;-88
2021/03/24 10:19:25;;;;;;;30.67;22.30;;;21.90;34.70;;;;;;6133627;23;20422;-88
2021/03/24 10:21:55;;;;;;;29.03;23.77;;;22.20;34.60;;;;;;6108818;23;20416;-88
2021/03/24 10:24:34;;;;;;;31.50;23.23;;;24.30;36.10;;;;;;6103065;23;20514;-89
2021/03/24 10:27:09;;;;;;;33.70;24.43;;;22.90;30.20;;;;;;6132721;23;20401;-88
2021/03/24 10:29:52;;;;;;;28.47;21.23;;;22.20;29.90;;;;;;6135815;23;20368;-87
2021/03/24 10:32:33;;;;;;;28.47;20.33;;;23.40;29.40;;;;;;6104410;23;20389;-88
2021/03/24 10:35:34;;;;;;;29.67;22.30;;;24.10;30.70;;;;;;6133922;23;20399;-89
2021/03/24 10:38:52;;;;;;;32.97;24.27;;;23.50;29.60;;;;;;6112064;23;20563;-90
2021/03/24 10:41:42;;;;;;;30.90;22.90;;;23.50;29.40;;;;;;6114529;23;20388;-89
2021/03/24 10:44:25;;;;;;;29.20;21.77;;;23.00;28.90;;;;;;6131745;23;20416;-88
2021/03/24 10:47:09;;;;;;;29.70;23.27;;;23.40;28.60;;;;;;6106667;23;20417;-88
2021/03/24 10:49:46;;;;;;;27.03;22.30;;;22.90;28.40;;;;;;6106362;23;20459;-89
2021/03/24 10:52:31;;;;;;;30.20;23.00;;;23.80;29.00;;;;;;6112706;23;20440;-90
2021/03/24 10:55:20;;;;;;;28.37;23.97;;;24.30;33.00;;;;;;6109152;23;20434;-88
2021/03/24 10:58:33;;;;;;;34.90;24.27;;;24.20;31.30;;;;;;6109065;23;20473;-88
2021/03/24 11:01:40;;;;;;;33.20;22.90;;;23.80;27.90;;;;;;6105626;23;20460;-89
2021/03/24 11:04:36;;;;;;;32.80;24.67;;;24.60;28.60;;;;;;6158495;23;20378;-88
2021/03/24 11:07:10;;;;;;;33.53;27.13;;;23.80;27.90;;;;;;6107275;23;20378;-90
2021/03/24 11:10:21;;;;;;;34.60;24.73;;;23.50;28.90;;;;;;6103618;23;20366;-89
2021/03/24 11:16:42;;;;;;;;;;;;;;;;;;;;;
2021/03/24 11:19:43;;;;;;;34.23;25.33;;;24.10;28.50;;;;;;6126810;23;20466;-88
2021/03/24 11:22:51;;;;;;;35.77;25.77;;;24.30;28.40;;;;;;6108265;23;20366;-87
2021/03/24 11:25:39;;;;;;;33.27;26.83;;;24.90;28.60;;;;;;6107118;23;20417;-90
2021/03/24 11:28:32;;;;;;;35.67;24.10;;;23.80;28.30;;;;;;6107240;23;20750;-89
2021/03/24 11:31:08;;;;;;;34.17;26.40;;;25.60;30.00;;;;;;6106889;23;20442;-89
2021/03/24 11:33:59;;;;;;;32.03;23.80;;;24.60;29.40;;;;;;6101817;23;20382;-89
2021/03/24 11:36:50;;;;;;;36.70;26.47;;;23.50;28.90;;;;;;6137913;23;20418;-89
2021/03/24 11:39:23;;;;;;;31.83;25.30;;;;;;;;;;6108359;23;20428;-89
2021/03/24 11:42:21;;;;;;;;;;;;;;;;;;;;;
2021/03/24 11:45:00;;;;;;;33.47;26.47;;;25.00;27.50;;;;;;6220324;23;20374;-89
2021/03/24 11:47:59;;;;;;;27.97;23.13;;;25.30;27.60;;;;;;6105242;23;20373;-84
2021/03/24 11:51:05;;;;;;;30.40;23.87;;;29.10;29.30;;;;;;6107844;23;20362;-86
2021/03/24 11:54:23;;;;;;;36.63;25.00;;;24.00;27.80;;;;;;6106645;23;20397;-88
2021/03/24 11:57:09;;;;;;;31.43;24.50;;;23.60;27.50;;;;;;6109277;23;20504;-89
2021/03/24 12:00:14;;;;;;;30.80;24.07;;;24.00;29.70;;;;;;6108592;23;20390;-88
2021/03/24 12:03:42;;;;;;;32.03;25.13;;;23.90;27.80;;;;;;6120177;23;20386;-86
2021/03/24 12:06:41;;;;;;;34.47;25.13;;;24.00;27.60;;;;;;6112203;22;20394;-86
2021/03/24 12:09:23;;;;;;;31.00;24.30;;;24.30;27.90;;;;;;6111634;23;20371;-90
2021/03/24 12:12:04;;;;;;;29.83;23.60;;;25.50;28.70;;;;;;6107870;23;20419;-89
2021/03/24 12:14:31;;;;;;;32.27;22.97;;;25.80;28.80;;;;;;6108604;23;20429;-87
2021/03/24 12:17:28;;;;;;;27.70;23.43;;;24.50;29.50;;;;;;6110586;23;20414;-89
2021/03/24 12:20:13;;;;;;;34.80;24.97;;;25.00;28.70;;;;;;6141902;23;20371;-88
2021/03/24 12:22:56;;;;;;;31.70;24.73;;;24.60;27.60;;;;;;6109214;23;20397;-89
2021/03/24 12:25:33;;;;;;;32.13;24.47;;;24.80;29.10;;;;;;6209928;23;20403;-91
2021/03/24 12:28:10;;;;;;;32.00;24.17;;;24.50;28.60;;;;;;6108127;23;20378;-89
2021/03/24 12:30:58;;;;;;;;;;;;;;;;;;;;;
2021/03/24 12:33:32;;;;;;;30.37;24.37;;;24.60;28.00;;;;;;6121221;23;20386;-88
2021/03/24 12:36:34;;;;;;;;;;;;;;;;;;;;;
2021/03/24 12:39:09;;;;;;;30.20;23.93;;;25.30;28.30;;;;;;6136846;22;20461;-88
2021/03/24 12:41:45;;;;;;;33.63;24.63;;;25.10;28.60;;;;;;6119599;23;20380;-88
2021/03/24 12:44:36;;;;;;;31.47;24.87;;;25.40;27.80;;;;;;6119166;23;20435;-89
2021/03/24 12:47:06;;;;;;;29.83;21.70;;;26.60;28.30;;;;;;6178234;23;20481;-86
2021/03/24 12:49:39;;;;;;;29.70;20.60;;;24.20;28.00;;;;;;6238391;23;20385;-91
2021/03/24 12:52:30;;;;;;;27.50;20.13;;;27.80;30.20;;;;;;6239270;23;20394;-88
2021/03/24 12:54:58;;;;;;;28.43;22.40;;;23.90;28.20;;;;;;6235088;23;20397;-89
2021/03/24 12:58:20;;;;;;;25.53;21.33;;;24.60;29.50;;;;;;6089958;23;20433;-89
2021/03/24 13:01:11;;;;;;;25.53;20.10;;;24.10;27.90;;;;;;6211251;23;20727;-89
2021/03/24 13:04:27;;;;;;;26.17;19.93;;;24.40;28.00;;;;;;6204221;23;20386;-89
2021/03/24 13:07:29;;;;;;;27.37;21.87;;;24.00;28.00;;;;;;6200386;23;20393;-88
2021/03/24 13:10:35;;;;;;;25.43;19.87;;;23.60;28.00;;;;;;6214167;23;20390;-89
2021/03/24 13:13:46;;;;;;;27.00;20.50;;;25.40;28.90;;;;;;6240678;23;20397;-87
2021/03/24 13:16:38;;;;;;;24.60;19.30;;;23.20;27.90;;;;;;6214326;23;20473;-86
2021/03/24 13:19:36;;;;;;;29.23;18.90;;;25.10;28.60;;;;;;6239578;23;20389;-89
2021/03/24 13:24:58;;;;;;;26.90;20.83;;;23.40;27.70;;;;;;6141041;22;20474;-88
2021/03/24 13:28:15;;;;;;;28.83;21.90;;;24.20;28.10;;;;;;6143426;23;20442;-86
2021/03/24 13:31:24;;;;;;;24.90;20.47;;;24.50;28.20;;;;;;6122822;23;20456;-89
2021/03/24 13:34:02;;;;;;;31.00;22.63;;;23.70;34.20;;;;;;6149967;22;20505;-86
2021/03/24 13:36:49;;;;;;;22.90;18.80;;;22.70;34.60;;;;;;6245910;23;20425;-87
2021/03/24 13:39:37;;;;;;;24.77;20.33;;;23.30;35.90;;;;;;6246001;22;20407;-87
2021/03/24 13:42:44;;;;;;;29.97;21.63;;;22.50;33.50;;;;;;6246319;22;20385;-87
2021/03/24 13:45:44;;;;;;;31.67;17.97;;;22.80;34.60;;;;;;6157383;22;20385;-88
2021/03/24 13:48:26;;;;;;;26.10;20.30;;;22.60;34.00;;;;;;6145500;23;20440;-85
2021/03/24 13:51:09;;;;;;;28.50;20.13;;;23.80;35.90;;;;;;6145296;23;20377;-87
2021/03/24 13:54:06;;;;;;;24.00;18.50;;;22.70;34.70;;;;;;6147004;22;20439;-88
2021/03/24 13:59:36;;;;;;;25.93;19.57;;;24.00;34.70;;;;;;6205861;23;20464;-86
2021/03/24 14:02:21;;;;;;;26.00;19.10;;;23.70;34.70;;;;;;6199682;23;20521;-88
2021/03/24 14:18:30;;;;;;;24.70;19.07;;;22.10;35.40;;;;;;6127573;23;20438;-86
2021/03/24 14:21:51;;;;;;;20.67;16.50;;;23.70;36.60;;;;;;6206180;23;20393;-88
2021/03/24 14:24:59;;;;;;;22.13;17.30;;;22.90;36.00;;;;;;6094116;23;20371;-88
2021/03/24 14:27:42;;;;;;;21.17;15.83;;;23.30;35.70;;;;;;6193800;23;20382;-88
2021/03/24 14:34:33;;;;;;;;;;;;;;;;;;;;;
2021/03/24 14:53:53;;;;;;;21.00;15.77;;;20.80;28.50;;;;;;6088576;23;20458;-86
2021/03/24 14:56:37;;;;;;;17.80;14.90;;;20.90;29.90;;;;;;6113186;23;20425;-87
2021/03/24 14:59:33;;;;;;;23.43;15.87;;;20.50;28.90;;;;;;6091278;23;20422;-87
2021/03/24 15:02:28;;;;;;;26.87;16.20;;;20.40;28.90;;;;;;6115122;23;20362;-88
2021/03/24 15:05:14;;;;;;;24.30;15.53;;;20.20;29.00;;;;;;6089832;23;20378;-89
2021/03/24 15:08:07;;;;;;;23.97;15.80;;;20.10;29.80;;;;;;6203177;23;20395;-88
2021/03/24 15:13:57;;;;;;;20.47;17.20;;;19.60;29.70;;;;;;6064576;23;20427;-87
2021/03/24 15:20:31;;;;;;;22.10;16.57;;;19.20;30.00;;;;;;6086887;23;20391;-87
2021/03/24 15:23:13;;;;;;;22.20;14.87;;;19.60;30.00;;;;;;6087359;23;20398;-85
2021/03/24 15:26:06;;;;;;;23.73;18.40;;;22.20;31.90;;;;;;6084094;23;20413;-87
2021/03/24 15:28:44;;;;;;;20.90;17.73;;;19.00;29.80;;;;;;6108875;23;20423;-88
2021/03/24 15:34:53;;;;;;;24.87;18.30;;;19.60;32.00;;;;;;6085639;23;20375;-89
2021/03/24 15:37:49;;;;;;;21.10;17.13;;;18.30;30.60;;;;;;6085876;23;20445;-87
2021/03/24 15:40:43;;;;;;;23.70;17.10;;;17.70;29.70;;;;;;6107386;23;20413;-88
2021/03/24 15:43:43;;;;;;;25.60;19.60;;;20.20;32.50;;;;;;6086978;23;20525;-87
2021/03/24 15:46:34;;;;;;;25.00;18.30;;;18.90;30.70;;;;;;6107991;23;20510;-89
2021/03/24 15:49:15;;;;;;;22.80;17.63;;;19.10;31.10;;;;;;6088842;23;20391;-89
2021/03/24 15:51:44;;;;;;;20.97;15.53;;;18.90;30.90;;;;;;6080777;23;20374;-89
2021/03/24 15:54:53;;;;;;;27.07;19.50;;;18.20;30.90;;;;;;6105235;23;20370;-89
2021/03/24 15:57:47;;;;;;;23.50;17.00;;;20.60;32.30;;;;;;6104836;23;20427;-89
2021/03/24 16:00:41;;;;;;;29.37;19.10;;;18.50;31.40;;;;;;6106879;23;20470;-89
2021/03/24 16:03:16;;;;;;;27.87;17.03;;;17.60;32.60;;;;;;6109444;23;20457;-87
2021/03/24 16:06:14;;;;;;;23.60;16.87;;;21.10;34.70;;;;;;6108831;23;20382;-87
2021/03/24 16:09:12;;;;;;;22.33;16.50;;;18.00;31.90;;;;;;6083836;23;20352;-88
2021/03/24 16:12:18;;;;;;;19.67;16.80;;;19.90;33.20;;;;;;6107148;23;20386;-86
2021/03/24 16:15:15;;;;;;;21.40;16.90;;;17.20;31.40;;;;;;6106465;23;20383;-87
2021/03/24 16:17:59;;;;;;;25.60;18.00;;;17.10;32.00;;;;;;6085213;23;20447;-85
2021/03/24 16:20:28;;;;;;;24.40;17.13;;;18.00;32.50;;;;;;6104489;23;20414;-88
2021/03/24 16:23:23;;;;;;;26.67;17.63;;;20.10;36.90;;;;;;6081729;23;20386;-86
2021/03/24 16:25:52;;;;;;;28.50;17.60;;;16.10;32.20;;;;;;6080825;23;20406;-86
2021/03/24 16:28:40;;;;;;;21.13;16.20;;;;;;;;;;6102179;23;20415;-85
2021/03/24 16:31:15;;;;;;;20.90;15.60;;;;;;;;;;6081942;23;20669;-85
2021/03/24 16:34:07;;;;;;;20.13;15.67;;;16.60;54.80;;;;;;6103620;23;20854;-85
2021/03/24 16:37:01;;;;;;;21.53;16.10;;;16.70;53.50;;;;;;6075528;23;20438;-88
2021/03/24 16:39:52;;;;;;;27.40;15.13;;;16.60;52.50;;;;;;6096150;23;20403;-85
2021/03/24 16:42:34;;;;;;;24.20;14.83;;;16.40;49.00;;;;;;6094659;23;20387;-86
2021/03/24 16:45:45;;;;;;;30.50;21.03;;;16.80;52.10;;;;;;6097433;23;20387;-87
2021/03/24 16:48:26;;;;;;;27.70;19.20;;;;;;;;;;6079174;23;20375;-87
2021/03/24 16:51:11;;;;;;;24.70;18.80;;;;;;;;;;6104713;23;20471;-88
2021/03/24 16:53:54;;;;;;;28.03;18.20;;;;;;;;;;6088946;23;20387;-88
2021/03/24 17:04:15;;;;;;;26.87;16.10;;;;;;;;;;6200068;22;20520;-87
2021/03/24 17:06:55;;;;;;;25.07;17.50;;;;;;;;;;6231544;23;20477;-86
2021/03/24 17:09:40;;;;;;;27.17;18.30;;;;;;;;;;6230326;23;20394;-87
2021/03/24 17:12:20;;;;;;;27.40;18.20;;;;;;;;;;6230791;23;20390;-89
2021/03/24 17:14:54;;;;;;;20.70;15.03;;;;;;;;;;6236865;23;20362;-86
2021/03/24 17:17:41;;;;;;;20.60;15.00;;;15.80;48.00;;;;;;6237779;23;20390;-85
2021/03/24 17:20:10;;;;;;;24.97;15.93;;;;;;;;;;6236391;23;20359;-86
2021/03/24 17:22:41;;;;;;;28.97;18.17;;;15.70;50.40;;;;;;6233139;23;20441;-86
2021/03/24 17:25:40;;;;;;;26.97;16.13;;;15.60;48.30;;;;;;6207038;23;20390;-88
2021/03/24 17:28:32;;;;;;;19.00;15.13;;;15.60;48.90;;;;;;6235195;23;20401;-86